createdAt,value
2023-02-04T00:00:37.967Z,156055.09
2023-02-04T00:03:25.811Z,156044.56
2023-02-04T00:05:53.973Z,156041.88
2023-02-04T00:08:21.727Z,156035.28
2023-02-04T00:10:49.934Z,156039.25
2023-02-04T00:13:17.337Z,156039.25
2023-02-04T00:15:45.720Z,156051.16
2023-02-04T00:18:13.592Z,156039.25
2023-02-04T00:20:41.642Z,156032.66
2023-02-04T00:23:09.171Z,156048.50
2023-02-04T00:25:37.420Z,156039.25
2023-02-04T00:28:06.447Z,156047.19
2023-02-04T00:30:34.932Z,156047.19
2023-02-04T00:33:03.614Z,156056.41
2023-02-04T00:35:31.672Z,156033.97
2023-02-04T00:37:59.573Z,156052.47
2023-02-04T00:40:27.812Z,156031.34
2023-02-04T00:42:55.610Z,156041.88
2023-02-04T00:45:24.128Z,156051.16
2023-02-04T00:47:51.923Z,156044.56
2023-02-04T00:50:20.029Z,156035.28
2023-02-04T00:52:47.393Z,156065.72
2023-02-04T00:55:17.229Z,156052.47
2023-02-04T00:57:48.790Z,156039.25
2023-02-04T01:00:18.245Z,156031.34
2023-02-04T01:02:46.309Z,156044.56
2023-02-04T01:05:15.114Z,156045.88
2023-02-04T01:07:43.229Z,156044.56
2023-02-04T01:10:12.071Z,156044.56
2023-02-04T01:12:40.025Z,156041.88
2023-02-04T01:15:08.806Z,156049.81
2023-02-04T01:17:36.558Z,156056.41
2023-02-04T01:20:04.916Z,156052.47
2023-02-04T01:22:32.913Z,156057.78
2023-02-04T01:25:00.949Z,156056.41
2023-02-04T01:27:41.762Z,156056.41
2023-02-04T01:30:10.729Z,156057.78
2023-02-04T01:32:38.405Z,156060.41
2023-02-04T01:35:06.883Z,156063.03
2023-02-04T01:37:34.838Z,156056.41
2023-02-04T01:40:03.936Z,156060.41
2023-02-04T01:42:31.697Z,156055.09
2023-02-04T01:44:59.643Z,156065.72
2023-02-04T01:47:27.352Z,156080.25
2023-02-04T01:49:56.165Z,156067.03
2023-02-04T01:52:24.364Z,156067.03
2023-02-04T01:54:53.314Z,156074.94
2023-02-04T01:57:21.146Z,156092.16
2023-02-04T01:59:56.299Z,156077.56
2023-02-04T02:02:44.648Z,156063.03
2023-02-04T02:05:17.455Z,156064.41
2023-02-04T02:07:45.455Z,156052.47
2023-02-04T02:10:14.883Z,156073.63
2023-02-04T02:12:44.753Z,156072.31
2023-02-04T02:15:13.789Z,156064.41
2023-02-04T02:17:41.863Z,156061.72
2023-02-04T02:20:12.614Z,156071.00
2023-02-04T02:22:48.277Z,156088.19
2023-02-04T02:25:16.590Z,156080.25
2023-02-04T02:27:44.537Z,156078.94
2023-02-04T02:30:17.941Z,156076.25
2023-02-04T02:32:46.772Z,156076.25
2023-02-04T02:35:15.562Z,156085.53
2023-02-04T02:37:43.278Z,156096.09
2023-02-04T02:40:12.591Z,156089.50
2023-02-04T02:42:40.500Z,156101.41
2023-02-04T02:45:20.849Z,156097.41
2023-02-04T02:47:49.776Z,156106.69
2023-02-04T02:50:20.025Z,156108.03
2023-02-04T02:52:47.733Z,156106.69
2023-02-04T02:55:18.778Z,156125.19
2023-02-04T02:57:48.748Z,156108.03
2023-02-04T03:00:24.034Z,156115.94
2023-02-04T03:03:07.717Z,156105.34
2023-02-04T03:05:38.750Z,156123.88
2023-02-04T03:08:07.602Z,156108.03
2023-02-04T03:10:37.228Z,156105.34
2023-02-04T03:13:05.367Z,156105.34
2023-02-04T03:15:33.538Z,156121.25
2023-02-04T03:18:01.338Z,156113.31
2023-02-04T03:20:31.917Z,156115.94
2023-02-04T03:23:00.400Z,156114.63
2023-02-04T03:25:29.202Z,156106.69
2023-02-04T03:27:59.446Z,156096.09
2023-02-04T03:30:28.497Z,156098.78
2023-02-04T03:32:56.172Z,156101.41
2023-02-04T03:35:24.197Z,156100.09
2023-02-04T03:37:52.558Z,156092.16
2023-02-04T03:40:20.827Z,156078.94
2023-02-04T03:42:48.475Z,156069.66
2023-02-04T03:45:16.825Z,156052.47
2023-02-04T03:47:44.489Z,156035.28
2023-02-04T03:50:14.108Z,156018.09
2023-02-04T03:52:41.868Z,156002.25
2023-02-04T03:55:10.250Z,155992.97
2023-02-04T03:57:37.961Z,155977.13
2023-02-04T04:00:06.786Z,155973.19
2023-02-04T04:02:40.378Z,155963.91
2023-02-04T04:05:09.223Z,155959.97
2023-02-04T04:07:36.990Z,155957.28
2023-02-04T04:10:05.403Z,155945.44
2023-02-04T04:12:33.224Z,155930.84
2023-02-04T04:15:01.344Z,155937.47
2023-02-04T04:17:29.106Z,155946.75
2023-02-04T04:19:57.334Z,155941.44
2023-02-04T04:22:25.014Z,155942.75
2023-02-04T04:24:53.110Z,155941.44
2023-02-04T04:27:21.221Z,155942.75
2023-02-04T04:29:49.314Z,155932.22
2023-02-04T04:32:17.008Z,155945.44
2023-02-04T04:34:45.269Z,155944.06
2023-02-04T04:37:13.047Z,155955.97
2023-02-04T04:39:41.631Z,155967.91
2023-02-04T04:42:10.296Z,155975.81
2023-02-04T04:44:38.312Z,155996.97
2023-02-04T04:47:06.078Z,156015.47
2023-02-04T04:49:34.526Z,156022.09
2023-02-04T04:52:02.365Z,156037.94
2023-02-04T04:54:30.967Z,156047.19
2023-02-04T04:56:58.782Z,156060.41
2023-02-04T04:59:26.736Z,156068.34
2023-02-04T05:01:54.265Z,156067.03
2023-02-04T05:04:22.614Z,156078.94
2023-02-04T05:06:50.238Z,156092.16
2023-02-04T05:09:18.270Z,156097.41
2023-02-04T05:11:47.592Z,156104.03
2023-02-04T05:14:15.370Z,156106.69
2023-02-04T05:16:43.204Z,156104.03
2023-02-04T05:19:12.175Z,156105.34
2023-02-04T05:21:39.714Z,156111.94
2023-02-04T05:24:08.015Z,156115.94
2023-02-04T05:26:35.756Z,156106.69
2023-02-04T05:29:03.945Z,156101.41
2023-02-04T05:31:32.042Z,156102.72
2023-02-04T05:34:00.122Z,156110.63
2023-02-04T05:36:28.394Z,156097.41
2023-02-04T05:38:56.334Z,156098.78
2023-02-04T05:41:24.356Z,156082.88
2023-02-04T05:43:52.543Z,156074.94
2023-02-04T05:46:21.400Z,156063.03
2023-02-04T05:48:49.685Z,156047.19
2023-02-04T05:51:17.452Z,156048.50
2023-02-04T05:53:45.612Z,156033.97
2023-02-04T05:56:13.582Z,156023.41
2023-02-04T05:58:41.598Z,156019.41
2023-02-04T06:01:10.182Z,155987.72
2023-02-04T06:03:38.068Z,155987.72
2023-02-04T06:06:05.915Z,155954.66
2023-02-04T06:08:34.187Z,155962.59
2023-02-04T06:11:02.079Z,155944.06
2023-02-04T06:13:30.526Z,155934.84
2023-02-04T06:15:58.314Z,155920.31
2023-02-04T06:18:26.303Z,155897.84
2023-02-04T06:20:53.929Z,155864.81
2023-02-04T06:23:22.388Z,155842.34
2023-02-04T06:25:50.876Z,155827.81
2023-02-04T06:28:19.154Z,155804.03
2023-02-04T06:30:46.816Z,155789.50
2023-02-04T06:33:15.138Z,155781.56
2023-02-04T06:35:42.836Z,155757.81
2023-02-04T06:38:10.870Z,155759.13
2023-02-04T06:40:38.902Z,155748.53
2023-02-04T06:43:07.204Z,155727.41
2023-02-04T06:45:36.004Z,155722.16
2023-02-04T06:48:04.277Z,155712.88
2023-02-04T06:50:32.254Z,155714.22
2023-02-04T06:53:00.687Z,155706.28
2023-02-04T06:55:28.512Z,155699.69
2023-02-04T06:57:57.069Z,155693.06
2023-02-04T07:00:24.772Z,155701.00
2023-02-04T07:02:53.485Z,155701.00
2023-02-04T07:05:21.312Z,155697.06
2023-02-04T07:07:49.721Z,155706.28
2023-02-04T07:10:18.465Z,155704.97
2023-02-04T07:12:47.067Z,155701.00
2023-02-04T07:15:15.035Z,155702.34
2023-02-04T07:17:43.546Z,155699.69
2023-02-04T07:20:12.119Z,155704.97
2023-02-04T07:22:40.388Z,155701.00
2023-02-04T07:25:08.575Z,155699.69
2023-02-04T07:27:36.740Z,155704.97
2023-02-04T07:30:04.915Z,155711.59
2023-02-04T07:32:33.699Z,155724.78
2023-02-04T07:35:01.507Z,155731.41
2023-02-04T07:37:29.843Z,155735.34
2023-02-04T07:39:57.534Z,155738.00
2023-02-04T07:42:25.499Z,155743.31
2023-02-04T07:45:01.281Z,155752.53
2023-02-04T07:47:29.571Z,155781.56
2023-02-04T07:49:57.309Z,155788.19
2023-02-04T07:52:26.045Z,155796.09
2023-02-04T07:54:54.348Z,155819.91
2023-02-04T07:57:22.377Z,155815.94
2023-02-04T07:59:50.732Z,155842.34
2023-02-04T08:02:19.341Z,155855.56
2023-02-04T08:04:47.142Z,155880.66
2023-02-04T08:07:15.885Z,155878.03
2023-02-04T08:09:43.681Z,155900.47
2023-02-04T08:12:12.111Z,155900.47
2023-02-04T08:14:39.856Z,155915.00
2023-02-04T08:17:07.760Z,155926.91
2023-02-04T08:19:35.678Z,155926.91
2023-02-04T08:22:04.251Z,155934.84
2023-02-04T08:24:31.837Z,155950.69
2023-02-04T08:27:00.216Z,155946.75
2023-02-04T08:29:27.975Z,155946.75
2023-02-04T08:31:56.198Z,155965.22
2023-02-04T08:34:24.158Z,155979.75
2023-02-04T08:36:52.116Z,155991.66
2023-02-04T08:39:19.792Z,155998.28
2023-02-04T08:41:49.426Z,156023.41
2023-02-04T08:44:17.850Z,156027.34
2023-02-04T08:46:46.059Z,156015.47
2023-02-04T08:49:14.154Z,156052.47
2023-02-04T08:51:42.891Z,156086.88
2023-02-04T08:54:10.561Z,156108.03
2023-02-04T08:56:38.704Z,156106.69
2023-02-04T08:59:06.379Z,156122.56
2023-02-04T09:01:34.741Z,156152.94
2023-02-04T09:04:03.061Z,156220.41
2023-02-04T09:06:31.184Z,156254.81
2023-02-04T09:08:58.952Z,156287.91
2023-02-04T09:11:27.328Z,156365.97
2023-02-04T09:13:57.075Z,156403.00
2023-02-04T09:16:25.717Z,156425.47
2023-02-04T09:18:53.452Z,156502.25
2023-02-04T09:21:22.142Z,156584.38
2023-02-04T09:23:50.208Z,156661.19
2023-02-04T09:26:18.305Z,156707.56
2023-02-04T09:28:46.132Z,156659.88
2023-02-04T09:31:14.140Z,156634.69
2023-02-04T09:33:42.282Z,156714.19
2023-02-04T09:36:10.239Z,156838.69
2023-02-04T09:38:38.576Z,156853.25
2023-02-04T09:41:12.250Z,156874.50
2023-02-04T09:43:42.742Z,156814.84
2023-02-04T09:46:20.796Z,156842.69
2023-02-04T09:48:49.305Z,156865.19
2023-02-04T09:51:28.950Z,156777.78
2023-02-04T09:54:09.728Z,156715.50
2023-02-04T09:56:38.138Z,156674.44
2023-02-04T09:59:32.400Z,156500.94
2023-02-04T10:02:02.254Z,156369.91
2023-02-04T10:04:30.281Z,156373.88
2023-02-04T10:07:01.482Z,156387.13
2023-02-04T10:09:29.704Z,156359.34
2023-02-04T10:11:57.927Z,156298.47
2023-02-04T10:14:25.646Z,156241.59
2023-02-04T10:17:00.963Z,156285.22
2023-02-04T10:19:30.139Z,156309.06
2023-02-04T10:21:58.199Z,156319.63
2023-02-04T10:24:27.577Z,156302.44
2023-02-04T10:27:09.049Z,156283.91
2023-02-04T10:29:37.214Z,156295.84
2023-02-04T10:32:05.393Z,156298.47
2023-02-04T10:34:40.141Z,156317.00
2023-02-04T10:37:26.854Z,156295.84
2023-02-04T10:39:55.061Z,156232.34
2023-02-04T10:42:28.688Z,156233.66
2023-02-04T10:44:56.453Z,156208.50
2023-02-04T10:47:26.977Z,156207.19
2023-02-04T10:49:57.583Z,156237.59
2023-02-04T10:52:34.312Z,156237.59
2023-02-04T10:55:04.070Z,156250.81
2023-02-04T10:57:33.614Z,156261.44
2023-02-04T11:00:04.225Z,156217.78
2023-02-04T11:02:43.797Z,156215.13
2023-02-04T11:05:23.823Z,156211.19
2023-02-04T11:07:51.842Z,156224.41
2023-02-04T11:10:25.201Z,156245.56
2023-02-04T11:12:53.610Z,156260.13
2023-02-04T11:15:49.271Z,156250.81
2023-02-04T11:18:21.513Z,156238.97
2023-02-04T11:20:51.029Z,156265.38
2023-02-04T11:23:33.665Z,156277.28
2023-02-04T11:26:19.203Z,156264.06
2023-02-04T11:28:59.130Z,156237.59
2023-02-04T11:31:49.493Z,156269.38
2023-02-04T11:34:22.028Z,156283.91
2023-02-04T11:37:02.421Z,156237.59
2023-02-04T11:39:36.329Z,156221.72
2023-02-04T11:42:06.007Z,156201.88
2023-02-04T11:44:34.496Z,156183.41
2023-02-04T11:47:03.238Z,156175.44
2023-02-04T11:49:31.841Z,156215.13
2023-02-04T11:52:14.268Z,156254.81
2023-02-04T11:54:42.478Z,156261.44
2023-02-04T11:57:12.630Z,156277.28
2023-02-04T11:59:40.851Z,156290.53
2023-02-04T12:02:42.766Z,156285.22
2023-02-04T12:05:14.339Z,156275.97
2023-02-04T12:07:43.044Z,156265.38
2023-02-04T12:10:13.679Z,156256.13
2023-02-04T12:12:45.026Z,156273.34
2023-02-04T12:15:24.483Z,156269.38
2023-02-04T12:18:21.052Z,156254.81
2023-02-04T12:20:49.364Z,156258.75
2023-02-04T12:23:17.171Z,156260.13
2023-02-04T12:25:44.958Z,156246.88
2023-02-04T12:28:12.914Z,156256.13
2023-02-04T12:30:41.295Z,156252.13
2023-02-04T12:33:09.101Z,156264.06
2023-02-04T12:35:37.574Z,156237.59
2023-02-04T12:38:05.500Z,156241.59
2023-02-04T12:40:33.946Z,156258.75
2023-02-04T12:43:01.749Z,156275.97
2023-02-04T12:45:30.174Z,156234.97
2023-02-04T12:47:58.245Z,156248.19
2023-02-04T12:50:27.109Z,156240.28
2023-02-04T12:52:58.771Z,156234.97
2023-02-04T12:55:28.387Z,156233.66
2023-02-04T12:57:56.948Z,156200.56
2023-02-04T13:00:27.717Z,156170.16
2023-02-04T13:02:55.535Z,156170.16
2023-02-04T13:05:23.753Z,156150.31
2023-02-04T13:07:51.352Z,156111.94
2023-02-04T13:10:20.215Z,156093.47
2023-02-04T13:12:47.887Z,156077.56
2023-02-04T13:15:15.365Z,156073.63
2023-02-04T13:17:43.203Z,156061.72
2023-02-04T13:20:11.311Z,156044.56
2023-02-04T13:22:38.836Z,156041.88
2023-02-04T13:25:07.047Z,156037.94
2023-02-04T13:27:34.558Z,156045.88
2023-02-04T13:30:02.174Z,156051.16
2023-02-04T13:32:29.621Z,156037.94
2023-02-04T13:34:57.312Z,156052.47
2023-02-04T13:37:25.273Z,156057.78
2023-02-04T13:39:52.916Z,156078.94
2023-02-04T13:42:20.306Z,156094.78
2023-02-04T13:44:47.846Z,156082.88
2023-02-04T13:47:15.092Z,156063.03
2023-02-04T13:49:42.725Z,156077.56
2023-02-04T13:52:10.015Z,156069.66
2023-02-04T13:54:37.585Z,156057.78
2023-02-04T13:57:05.776Z,156051.16
2023-02-04T13:59:33.700Z,156041.88
2023-02-04T14:02:01.100Z,156043.25
2023-02-04T14:04:28.910Z,156048.50
2023-02-04T14:06:56.649Z,156047.19
2023-02-04T14:09:25.622Z,156057.78
2023-02-04T14:11:52.886Z,156049.81
2023-02-04T14:14:20.481Z,156047.19
2023-02-04T14:16:47.736Z,156011.50
2023-02-04T14:19:15.531Z,156036.63
2023-02-04T14:21:42.819Z,156031.34
2023-02-04T14:24:10.377Z,156033.97
2023-02-04T14:26:37.710Z,156044.56
2023-02-04T14:29:07.219Z,156044.56
2023-02-04T14:31:36.725Z,156036.63
2023-02-04T14:34:04.767Z,156030.03
2023-02-04T14:36:32.049Z,156011.50
2023-02-04T14:39:00.821Z,156012.81
2023-02-04T14:41:30.375Z,156012.81
2023-02-04T14:43:58.198Z,156004.88
2023-02-04T14:46:25.625Z,155996.97
2023-02-04T14:48:54.755Z,155977.13
2023-02-04T14:51:22.182Z,155963.91
2023-02-04T14:53:49.739Z,155941.44
2023-02-04T14:56:17.247Z,155928.22
2023-02-04T14:58:44.767Z,155913.69
2023-02-04T15:01:12.083Z,155903.09
2023-02-04T15:03:39.673Z,155888.56
2023-02-04T15:06:07.175Z,155880.66
2023-02-04T15:08:35.686Z,155866.13
2023-02-04T15:11:03.089Z,155843.66
2023-02-04T15:13:30.858Z,155834.44
2023-02-04T15:15:58.013Z,155813.31
2023-02-04T15:18:25.935Z,155825.16
2023-02-04T15:20:53.088Z,155814.63
2023-02-04T15:23:20.736Z,155804.03
2023-02-04T15:25:48.453Z,155774.97
2023-02-04T15:28:16.169Z,155763.06
2023-02-04T15:30:43.465Z,155752.53
2023-02-04T15:33:13.216Z,155753.84
2023-02-04T15:35:40.692Z,155732.72
2023-02-04T15:38:08.009Z,155726.09
2023-02-04T15:40:35.514Z,155707.59
2023-02-04T15:43:03.376Z,155707.59
2023-02-04T15:45:30.722Z,155699.69
2023-02-04T15:47:58.341Z,155683.84
2023-02-04T15:50:25.559Z,155689.16
2023-02-04T15:52:54.226Z,155691.75
2023-02-04T15:55:21.520Z,155685.16
2023-02-04T15:57:49.199Z,155666.72
2023-02-04T16:00:16.772Z,155670.63
2023-02-04T16:02:44.440Z,155668.03
2023-02-04T16:05:11.813Z,155654.81
2023-02-04T16:07:39.448Z,155646.91
2023-02-04T16:10:06.796Z,155644.22
2023-02-04T16:12:34.442Z,155641.59
2023-02-04T16:15:01.833Z,155642.91
2023-02-04T16:17:29.611Z,155632.38
2023-02-04T16:19:58.238Z,155624.41
2023-02-04T16:22:25.826Z,155631.00
2023-02-04T16:24:53.331Z,155627.09
2023-02-04T16:27:21.021Z,155608.56
2023-02-04T16:29:48.761Z,155596.72
2023-02-04T16:32:16.450Z,155572.94
2023-02-04T16:34:43.809Z,155572.94
2023-02-04T16:37:11.460Z,155559.75
2023-02-04T16:39:44.784Z,155541.28
2023-02-04T16:42:12.837Z,155537.31
2023-02-04T16:44:40.140Z,155517.50
2023-02-04T16:47:08.665Z,155525.41
2023-02-04T16:49:36.505Z,155537.31
2023-02-04T16:52:05.273Z,155536.00
2023-02-04T16:54:33.380Z,155534.69
2023-02-04T16:57:01.662Z,155532.03
2023-02-04T16:59:29.131Z,155517.50
2023-02-04T17:01:57.932Z,155539.94
2023-02-04T17:04:25.614Z,155534.69
2023-02-04T17:06:53.751Z,155528.09
2023-02-04T17:09:21.064Z,155537.31
2023-02-04T17:11:48.801Z,155543.91
2023-02-04T17:14:16.193Z,155549.19
2023-02-04T17:16:44.738Z,155557.13
2023-02-04T17:19:13.046Z,155555.81
2023-02-04T17:21:41.008Z,155554.44
2023-02-04T17:24:08.579Z,155561.06
2023-02-04T17:26:38.115Z,155557.13
2023-02-04T17:29:13.794Z,155553.13
2023-02-04T17:31:44.396Z,155541.28
2023-02-04T17:34:11.885Z,155534.69
2023-02-04T17:36:39.544Z,155524.09
2023-02-04T17:39:07.756Z,155526.72
2023-02-04T17:41:35.401Z,155508.28
2023-02-04T17:44:03.708Z,155514.88
2023-02-04T17:46:31.715Z,155492.47
2023-02-04T17:48:59.120Z,155458.16
2023-02-04T17:51:26.711Z,155467.38
2023-02-04T17:53:54.060Z,155460.78
2023-02-04T17:56:21.813Z,155454.16
2023-02-04T17:58:49.679Z,155439.66
2023-02-04T18:01:19.419Z,155431.75
2023-02-04T18:03:47.167Z,155425.16
2023-02-04T18:06:22.538Z,155418.56
2023-02-04T18:08:51.478Z,155418.56
2023-02-04T18:11:22.269Z,155414.56
2023-02-04T18:13:50.302Z,155411.94
2023-02-04T18:16:32.321Z,155409.34
2023-02-04T18:19:22.793Z,155397.44
2023-02-04T18:21:51.345Z,155404.03
2023-02-04T18:24:27.398Z,155393.47
2023-02-04T18:26:56.913Z,155400.06
2023-02-04T18:29:27.256Z,155397.44
2023-02-04T18:32:01.271Z,155393.47
2023-02-04T18:34:35.880Z,155400.06
2023-02-04T18:37:41.008Z,155413.25
2023-02-04T18:40:11.883Z,155398.75
2023-02-04T18:42:42.180Z,155407.97
2023-02-04T18:45:30.583Z,155393.47
2023-02-04T18:48:01.427Z,155389.53
2023-02-04T18:50:32.650Z,155389.53
2023-02-04T18:53:02.035Z,155386.88
2023-02-04T18:55:36.629Z,155389.53
2023-02-04T18:58:17.192Z,155396.13
2023-02-04T19:00:49.278Z,155404.03
2023-02-04T19:03:42.225Z,155415.94
2023-02-04T19:06:30.443Z,155423.84
2023-02-04T19:09:23.298Z,155431.75
2023-02-04T19:11:58.056Z,155429.06
2023-02-04T19:14:44.962Z,155443.63
2023-02-04T19:17:32.302Z,155460.78
2023-02-04T19:20:00.909Z,155456.78
2023-02-04T19:22:49.781Z,155466.06
2023-02-04T19:25:37.230Z,155467.38
2023-02-04T19:28:32.929Z,155459.47
2023-02-04T19:31:05.628Z,155459.47
2023-02-04T19:33:43.109Z,155466.06
2023-02-04T19:36:33.946Z,155460.78
2023-02-04T19:39:21.165Z,155462.06
2023-02-04T19:41:50.956Z,155458.16
2023-02-04T19:44:29.847Z,155451.56
2023-02-04T19:46:58.167Z,155446.25
2023-02-04T19:49:29.428Z,155444.94
2023-02-04T19:51:58.422Z,155452.84
2023-02-04T19:54:36.227Z,155443.63
2023-02-04T19:57:26.135Z,155439.66
2023-02-04T19:59:56.268Z,155439.66
2023-02-04T20:02:38.500Z,155438.34
2023-02-04T20:05:17.549Z,155425.16
2023-02-04T20:07:45.389Z,155439.66
2023-02-04T20:10:35.635Z,155433.06
2023-02-04T20:13:13.330Z,155425.16
2023-02-04T20:15:40.982Z,155410.66
2023-02-04T20:18:20.136Z,155417.25
2023-02-04T20:20:47.611Z,155405.34
2023-02-04T20:23:34.010Z,155402.72
2023-02-04T20:26:01.809Z,155397.44
2023-02-04T20:28:43.349Z,155388.22
2023-02-04T20:31:39.314Z,155389.53
2023-02-04T20:34:17.625Z,155397.44
2023-02-04T20:36:46.900Z,155393.47
2023-02-04T20:39:35.746Z,155389.53
2023-02-04T20:42:21.311Z,155388.22
2023-02-04T20:44:49.417Z,155384.25
2023-02-04T20:47:19.671Z,155389.53
2023-02-04T20:49:54.271Z,155402.72
2023-02-04T20:52:40.162Z,155398.75
2023-02-04T20:55:30.815Z,155396.13
2023-02-04T20:58:23.035Z,155393.47
2023-02-04T21:00:54.164Z,155382.94
2023-02-04T21:03:28.939Z,155380.25
2023-02-04T21:05:58.976Z,155368.44
2023-02-04T21:08:35.777Z,155360.53
2023-02-04T21:11:04.600Z,155357.84
2023-02-04T21:13:32.478Z,155346.00
2023-02-04T21:16:00.959Z,155330.16
2023-02-04T21:18:30.063Z,155307.75
2023-02-04T21:20:58.239Z,155298.53
2023-02-04T21:23:25.738Z,155273.44
2023-02-04T21:25:53.748Z,155268.16
2023-02-04T21:28:21.163Z,155243.13
2023-02-04T21:30:48.939Z,155220.72
2023-02-04T21:33:17.218Z,155196.97
2023-02-04T21:35:45.131Z,155190.38
2023-02-04T21:38:12.549Z,155185.09
2023-02-04T21:40:40.805Z,155169.28
2023-02-04T21:43:08.593Z,155156.09
2023-02-04T21:45:38.140Z,155153.47
2023-02-04T21:48:06.394Z,155131.09
2023-02-04T21:50:35.458Z,155108.63
2023-02-04T21:53:02.782Z,155082.31
2023-02-04T21:55:31.002Z,155070.44
2023-02-04T21:57:58.686Z,155059.91
2023-02-04T22:00:27.646Z,155041.50
2023-02-04T22:02:55.605Z,155038.84
2023-02-04T22:05:24.233Z,155023.03
2023-02-04T22:07:52.033Z,155021.75
2023-02-04T22:10:22.971Z,155020.44
2023-02-04T22:12:50.573Z,155001.97
2023-02-04T22:15:18.867Z,154971.69
2023-02-04T22:17:46.829Z,154965.09
2023-02-04T22:20:17.909Z,154955.84
2023-02-04T22:22:46.504Z,154951.91
2023-02-04T22:25:16.127Z,154936.13
2023-02-04T22:27:43.996Z,154929.53
2023-02-04T22:30:12.843Z,154916.34
2023-02-04T22:32:41.242Z,154907.09
2023-02-04T22:35:10.539Z,154913.69
2023-02-04T22:37:42.234Z,154901.88
2023-02-04T22:40:12.305Z,154886.03
2023-02-04T22:42:40.299Z,154883.41
2023-02-04T22:45:10.518Z,154870.22
2023-02-04T22:47:38.921Z,154866.31
2023-02-04T22:50:06.820Z,154858.38
2023-02-04T22:52:35.006Z,154851.78
2023-02-04T22:55:02.880Z,154830.72
2023-02-04T22:57:30.819Z,154817.59
2023-02-04T22:59:58.422Z,154812.31
2023-02-04T23:02:26.282Z,154807.03
2023-02-04T23:04:53.848Z,154807.03
2023-02-04T23:07:21.591Z,154813.63
2023-02-04T23:09:48.940Z,154799.13
2023-02-04T23:12:16.814Z,154791.25
2023-02-04T23:14:46.557Z,154792.56
2023-02-04T23:17:15.358Z,154785.97
2023-02-04T23:19:43.149Z,154793.84
2023-02-04T23:22:12.850Z,154796.53
2023-02-04T23:24:41.087Z,154795.16
2023-02-04T23:27:11.401Z,154809.63
2023-02-04T23:29:39.811Z,154838.66
2023-02-04T23:32:08.052Z,154854.44
2023-02-04T23:34:35.957Z,154872.91
2023-02-04T23:37:03.926Z,154883.41
2023-02-04T23:39:32.808Z,154900.50
2023-02-04T23:42:00.720Z,154908.44
2023-02-04T23:44:28.441Z,154917.66
2023-02-04T23:46:56.416Z,154929.53
2023-02-04T23:49:23.813Z,154942.69
2023-02-04T23:51:51.750Z,154963.78
2023-02-04T23:54:19.487Z,154959.81
2023-02-04T23:56:47.336Z,154980.88
2023-02-04T23:59:15.069Z,154986.16
